createdAt,value
2018-11-03T00:01:36.392Z,99.10
2018-11-03T00:04:04.877Z,98.70
2018-11-03T00:06:33.299Z,98.90
2018-11-03T00:09:01.717Z,98.70
2018-11-03T00:11:30.121Z,99.00
2018-11-03T00:13:58.603Z,98.80
2018-11-03T00:16:26.996Z,98.60
2018-11-03T00:18:55.408Z,98.50
2018-11-03T00:21:23.853Z,98.40
2018-11-03T00:23:52.369Z,98.30
2018-11-03T00:26:20.779Z,98.30
2018-11-03T00:28:49.204Z,98.10
2018-11-03T00:31:17.590Z,98.30
2018-11-03T00:33:45.989Z,98.30
2018-11-03T00:36:14.385Z,98.30
2018-11-03T00:38:42.791Z,98.40
2018-11-03T00:41:11.205Z,98.40
2018-11-03T00:43:39.591Z,98.40
2018-11-03T00:46:08.375Z,98.30
2018-11-03T00:48:36.816Z,98.20
2018-11-03T00:51:05.273Z,98.20
2018-11-03T00:53:33.767Z,98.00
2018-11-03T00:56:02.212Z,98.20
2018-11-03T00:58:30.673Z,98.30
2018-11-03T01:00:59.119Z,98.60
2018-11-03T01:03:27.528Z,98.40
2018-11-03T01:05:55.981Z,98.50
2018-11-03T01:08:24.412Z,98.70
2018-11-03T01:10:52.853Z,98.70
2018-11-03T01:13:21.268Z,98.90
2018-11-03T01:15:49.696Z,99.00
2018-11-03T01:18:18.109Z,99.10
2018-11-03T01:20:46.536Z,99.10
2018-11-03T01:23:15.036Z,99.40
2018-11-03T01:25:43.489Z,99.10
2018-11-03T01:28:11.899Z,99.20
2018-11-03T01:30:40.333Z,99.40
2018-11-03T01:33:08.849Z,99.40
2018-11-03T01:35:37.344Z,99.30
2018-11-03T01:38:05.887Z,99.30
2018-11-03T01:40:34.327Z,99.60
2018-11-03T01:43:02.779Z,99.60
2018-11-03T01:45:31.231Z,99.80
2018-11-03T01:47:59.672Z,99.80
2018-11-03T01:50:28.104Z,99.90
2018-11-03T01:52:56.513Z,99.90
2018-11-03T01:55:24.915Z,99.90
2018-11-03T01:57:53.343Z,99.70
2018-11-03T02:00:21.785Z,99.60
2018-11-03T02:02:50.172Z,99.60
2018-11-03T02:05:18.618Z,99.60
2018-11-03T02:07:47.015Z,99.70
2018-11-03T02:10:15.430Z,99.80
2018-11-03T02:12:43.819Z,99.70
2018-11-03T02:15:12.261Z,99.40
2018-11-03T02:17:40.647Z,99.70
2018-11-03T02:20:09.863Z,99.80
2018-11-03T02:22:38.977Z,99.70
2018-11-03T02:25:07.751Z,99.70
2018-11-03T02:27:36.148Z,99.60
2018-11-03T02:30:04.645Z,99.40
2018-11-03T02:32:33.041Z,99.20
2018-11-03T02:35:01.465Z,99.20
2018-11-03T02:37:29.881Z,99.60
2018-11-03T02:39:58.291Z,99.70
2018-11-03T02:42:26.690Z,99.60
2018-11-03T02:44:55.094Z,99.60
2018-11-03T02:47:23.509Z,99.70
2018-11-03T02:49:51.923Z,99.70
2018-11-03T02:52:20.356Z,99.60
2018-11-03T02:54:48.788Z,99.60
2018-11-03T02:57:17.233Z,99.50
2018-11-03T02:59:45.652Z,99.20
2018-11-03T03:02:14.084Z,99.20
2018-11-03T03:04:42.520Z,99.40
2018-11-03T03:07:11.004Z,99.20
2018-11-03T03:09:39.421Z,99.20
2018-11-03T03:12:07.873Z,98.70
2018-11-03T03:14:36.300Z,99.00
2018-11-03T03:17:04.980Z,98.80
2018-11-03T03:19:33.430Z,98.90
2018-11-03T03:22:01.861Z,98.80
2018-11-03T03:24:30.299Z,98.80
2018-11-03T03:26:58.727Z,98.60
2018-11-03T03:29:27.232Z,98.70
2018-11-03T03:31:55.617Z,98.70
2018-11-03T03:34:24.033Z,98.30
2018-11-03T03:36:52.556Z,98.20
2018-11-03T03:39:20.968Z,98.20
2018-11-03T03:41:49.417Z,98.00
2018-11-03T03:44:17.821Z,98.00
2018-11-03T03:46:46.260Z,97.60
2018-11-03T03:49:14.804Z,97.70
2018-11-03T03:51:43.245Z,97.70
2018-11-03T03:54:11.644Z,98.00
2018-11-03T03:56:40.064Z,97.90
2018-11-03T03:59:08.465Z,97.90
2018-11-03T04:01:36.874Z,97.70
2018-11-03T04:04:05.326Z,97.80
2018-11-03T04:06:33.793Z,97.90
2018-11-03T04:09:02.311Z,97.90
2018-11-03T04:11:30.732Z,98.10
2018-11-03T04:13:59.171Z,98.00
2018-11-03T04:16:27.604Z,98.10
2018-11-03T04:18:56.021Z,98.10
2018-11-03T04:21:28.448Z,98.10
2018-11-03T04:23:56.950Z,98.30
2018-11-03T04:26:26.208Z,98.10
2018-11-03T04:28:54.644Z,98.10
2018-11-03T04:31:23.076Z,97.80
2018-11-03T04:33:51.480Z,97.90
2018-11-03T04:36:19.934Z,98.00
2018-11-03T04:38:48.376Z,97.80
2018-11-03T04:41:16.851Z,97.60
2018-11-03T04:43:45.345Z,97.80
2018-11-03T04:46:13.755Z,97.90
2018-11-03T04:48:42.364Z,97.60
2018-11-03T04:51:10.821Z,97.60
2018-11-03T04:53:39.232Z,97.70
2018-11-03T04:56:07.634Z,97.30
2018-11-03T04:58:36.032Z,97.30
2018-11-03T05:01:04.563Z,97.30
2018-11-03T05:03:33.012Z,97.30
2018-11-03T05:06:01.452Z,97.40
2018-11-03T05:08:29.834Z,97.50
2018-11-03T05:10:58.270Z,97.30
2018-11-03T05:13:26.657Z,97.30
2018-11-03T05:15:55.067Z,97.40
2018-11-03T05:18:23.459Z,97.50
2018-11-03T05:20:51.895Z,97.50
2018-11-03T05:23:20.288Z,97.40
2018-11-03T05:25:48.704Z,97.50
2018-11-03T05:28:17.199Z,97.40
2018-11-03T05:30:45.589Z,97.20
2018-11-03T05:33:14.008Z,97.50
2018-11-03T05:35:42.424Z,97.60
2018-11-03T05:38:10.809Z,97.60
2018-11-03T05:40:39.228Z,97.50
2018-11-03T05:43:07.676Z,97.80
2018-11-03T05:45:36.063Z,97.50
2018-11-03T05:48:04.526Z,97.50
2018-11-03T05:50:32.929Z,97.60
2018-11-03T05:53:01.384Z,97.90
2018-11-03T05:55:29.763Z,97.70
2018-11-03T05:57:58.185Z,97.60
2018-11-03T06:00:27.520Z,97.40
2018-11-03T06:02:56.884Z,97.50
2018-11-03T06:05:25.333Z,97.50
2018-11-03T06:07:53.740Z,97.50
2018-11-03T06:10:22.122Z,97.50
2018-11-03T06:12:50.528Z,97.60
2018-11-03T06:15:19.099Z,97.50
2018-11-03T06:17:47.468Z,97.40
2018-11-03T06:20:15.902Z,97.40
2018-11-03T06:22:44.569Z,97.40
2018-11-03T06:25:12.825Z,97.20
2018-11-03T06:27:41.253Z,97.20
2018-11-03T06:30:10.897Z,97.00
2018-11-03T06:32:39.349Z,97.10
2018-11-03T06:35:08.442Z,97.10
2018-11-03T06:37:36.802Z,97.00
2018-11-03T06:40:06.109Z,97.00
2018-11-03T06:42:34.604Z,97.00
2018-11-03T06:45:03.014Z,96.80
2018-11-03T06:47:31.470Z,96.70
2018-11-03T06:49:59.856Z,96.80
2018-11-03T06:52:28.288Z,96.90
2018-11-03T06:54:56.696Z,96.60
2018-11-03T06:57:25.116Z,96.90
2018-11-03T06:59:53.504Z,96.70
2018-11-03T07:02:21.925Z,96.60
2018-11-03T07:04:50.323Z,96.60
2018-11-03T07:07:18.729Z,96.60
2018-11-03T07:09:47.111Z,96.50
2018-11-03T07:12:15.608Z,96.50
2018-11-03T07:14:43.931Z,96.20
2018-11-03T07:17:12.349Z,96.20
2018-11-03T07:19:40.732Z,96.40
2018-11-03T07:22:09.140Z,96.20
2018-11-03T07:24:37.524Z,96.20
2018-11-03T07:27:05.987Z,96.00
2018-11-03T07:29:34.389Z,96.10
2018-11-03T07:32:02.837Z,96.10
2018-11-03T07:34:31.244Z,96.10
2018-11-03T07:36:59.647Z,96.00
2018-11-03T07:39:28.053Z,95.90
2018-11-03T07:41:56.474Z,96.10
2018-11-03T07:44:24.863Z,96.10
2018-11-03T07:46:53.287Z,96.10
2018-11-03T07:49:21.716Z,96.10
2018-11-03T07:51:50.137Z,96.10
2018-11-03T07:54:18.564Z,96.10
2018-11-03T07:56:46.996Z,96.10
2018-11-03T07:59:15.429Z,96.10
2018-11-03T08:01:43.868Z,96.10
2018-11-03T08:04:12.283Z,95.70
2018-11-03T08:06:40.719Z,95.50
2018-11-03T08:09:10.173Z,95.80
2018-11-03T08:11:38.945Z,95.50
2018-11-03T08:14:07.461Z,95.50
2018-11-03T08:16:35.889Z,95.30
2018-11-03T08:19:04.364Z,95.50
2018-11-03T08:21:32.775Z,95.00
2018-11-03T08:24:01.307Z,95.00
2018-11-03T08:26:29.683Z,95.30
2018-11-03T08:28:58.127Z,95.20
2018-11-03T08:31:26.633Z,95.10
2018-11-03T08:33:55.057Z,95.00
2018-11-03T08:36:23.479Z,94.90
2018-11-03T08:38:52.001Z,94.90
2018-11-03T08:41:20.435Z,94.80
2018-11-03T08:43:48.912Z,94.80
2018-11-03T08:46:17.351Z,94.60
2018-11-03T08:48:45.892Z,94.90
2018-11-03T08:51:14.296Z,94.30
2018-11-03T08:53:42.783Z,94.20
2018-11-03T08:56:11.217Z,94.10
2018-11-03T08:58:39.675Z,94.20
2018-11-03T09:01:08.100Z,93.90
2018-11-03T09:03:36.568Z,93.90
2018-11-03T09:06:05.180Z,93.80
2018-11-03T09:08:33.639Z,93.70
2018-11-03T09:11:02.141Z,93.70
2018-11-03T09:13:30.588Z,93.60
2018-11-03T09:15:59.030Z,93.20
2018-11-03T09:18:27.475Z,93.30
2018-11-03T09:20:55.925Z,93.20
2018-11-03T09:23:24.369Z,93.20
2018-11-03T09:25:52.817Z,92.90
2018-11-03T09:28:21.249Z,93.00
2018-11-03T09:30:49.672Z,92.90
2018-11-03T09:33:18.111Z,92.80
2018-11-03T09:35:46.540Z,92.60
2018-11-03T09:38:14.988Z,92.90
2018-11-03T09:40:43.477Z,92.80
2018-11-03T09:43:12.002Z,92.90
2018-11-03T09:45:40.359Z,92.90
2018-11-03T09:48:08.813Z,92.50
2018-11-03T09:50:37.327Z,92.60
2018-11-03T09:53:05.761Z,92.60
2018-11-03T09:55:34.256Z,92.50
2018-11-03T09:58:02.737Z,92.40
2018-11-03T10:00:31.193Z,92.60
2018-11-03T10:02:59.644Z,92.80
2018-11-03T10:05:28.161Z,92.50
2018-11-03T10:07:57.895Z,92.50
2018-11-03T10:10:26.344Z,92.50
2018-11-03T10:12:54.769Z,92.30
2018-11-03T10:15:23.251Z,92.20
2018-11-03T10:17:51.666Z,92.00
2018-11-03T10:20:20.106Z,92.20
2018-11-03T10:22:48.552Z,92.00
2018-11-03T10:25:18.356Z,92.10
2018-11-03T10:27:47.130Z,92.30
2018-11-03T10:30:16.562Z,91.70
2018-11-03T10:32:45.252Z,92.10
2018-11-03T10:35:14.184Z,91.80
2018-11-03T10:37:42.830Z,92.20
2018-11-03T10:40:13.187Z,92.20
2018-11-03T10:42:42.077Z,90.90
2018-11-03T10:45:11.791Z,91.40
2018-11-03T10:47:40.751Z,91.20
2018-11-03T10:50:11.912Z,91.00
2018-11-03T10:52:41.300Z,90.90
2018-11-03T10:55:11.036Z,90.60
2018-11-03T10:57:39.480Z,90.40
2018-11-03T11:00:17.559Z,90.10
2018-11-03T11:02:51.395Z,90.10
2018-11-03T11:05:25.259Z,90.20
2018-11-03T11:07:58.940Z,90.50
2018-11-03T11:10:32.720Z,90.50
2018-11-03T11:13:04.865Z,90.30
2018-11-03T11:15:33.305Z,90.10
2018-11-03T11:18:01.821Z,89.60
2018-11-03T11:20:30.303Z,89.50
2018-11-03T11:22:58.740Z,88.80
2018-11-03T11:25:27.250Z,88.50
2018-11-03T11:27:55.632Z,88.10
2018-11-03T11:30:24.162Z,87.30
2018-11-03T11:32:52.713Z,87.60
2018-11-03T11:35:21.104Z,87.10
2018-11-03T11:37:49.553Z,86.80
2018-11-03T11:40:18.055Z,87.10
2018-11-03T11:42:46.532Z,86.50
2018-11-03T11:45:14.954Z,86.90
2018-11-03T11:47:43.380Z,87.10
2018-11-03T11:50:11.851Z,85.90
2018-11-03T11:52:40.309Z,86.20
2018-11-03T11:55:08.855Z,85.90
2018-11-03T11:57:37.208Z,84.60
2018-11-03T12:00:05.828Z,85.70
2018-11-03T12:02:34.418Z,85.10
2018-11-03T12:05:02.739Z,85.00
2018-11-03T12:07:31.536Z,84.60
2018-11-03T12:10:00.051Z,85.20
2018-11-03T12:12:28.420Z,85.70
2018-11-03T12:14:56.875Z,85.50
2018-11-03T12:17:25.288Z,85.30
2018-11-03T12:19:53.743Z,85.10
2018-11-03T12:22:22.194Z,85.80
2018-11-03T12:24:50.680Z,85.20
2018-11-03T12:27:19.117Z,85.00
2018-11-03T12:29:47.644Z,84.50
2018-11-03T12:32:16.107Z,84.30
2018-11-03T12:34:44.548Z,83.80
2018-11-03T12:37:12.981Z,83.70
2018-11-03T12:39:41.423Z,83.50
2018-11-03T12:42:09.867Z,83.40
2018-11-03T12:44:38.494Z,83.30
2018-11-03T12:47:06.872Z,83.60
2018-11-03T12:49:35.333Z,83.30
2018-11-03T12:52:03.795Z,83.30
2018-11-03T12:54:32.208Z,83.40
2018-11-03T12:57:00.656Z,84.00
2018-11-03T12:59:29.076Z,83.30
2018-11-03T13:01:57.511Z,83.40
2018-11-03T13:04:25.932Z,83.30
2018-11-03T13:06:54.440Z,83.30
2018-11-03T13:09:22.868Z,83.40
2018-11-03T13:11:51.316Z,84.00
2018-11-03T13:14:19.727Z,83.20
2018-11-03T13:16:48.213Z,83.40
2018-11-03T13:19:16.636Z,83.40
2018-11-03T13:21:45.070Z,84.00
2018-11-03T13:24:13.486Z,83.50
2018-11-03T13:26:41.935Z,83.50
2018-11-03T13:29:10.339Z,82.50
2018-11-03T13:31:38.813Z,83.30
2018-11-03T13:34:07.266Z,82.80
2018-11-03T13:36:35.705Z,83.70
2018-11-03T13:39:05.404Z,83.10
2018-11-03T13:41:33.836Z,82.80
2018-11-03T13:44:02.291Z,83.20
2018-11-03T13:46:30.728Z,82.70
2018-11-03T13:48:59.157Z,83.60
2018-11-03T13:51:27.615Z,82.60
2018-11-03T13:53:56.047Z,82.50
2018-11-03T13:56:24.492Z,81.60
2018-11-03T13:58:53.681Z,82.10
2018-11-03T14:01:22.157Z,81.90
2018-11-03T14:03:50.590Z,82.30
2018-11-03T14:06:19.053Z,81.90
2018-11-03T14:08:47.491Z,82.00
2018-11-03T14:11:15.997Z,82.80
2018-11-03T14:13:44.419Z,83.40
2018-11-03T14:16:12.976Z,83.60
2018-11-03T14:18:41.940Z,82.40
2018-11-03T14:21:10.493Z,83.50
2018-11-03T14:23:39.043Z,83.00
2018-11-03T14:26:07.447Z,84.00
2018-11-03T14:28:35.946Z,83.40
2018-11-03T14:31:04.488Z,83.50
2018-11-03T14:33:32.936Z,83.50
2018-11-03T14:36:01.432Z,83.30
2018-11-03T14:38:29.913Z,83.50
2018-11-03T14:40:58.362Z,83.50
2018-11-03T14:43:26.800Z,83.50
2018-11-03T14:45:55.298Z,83.40
2018-11-03T14:48:23.735Z,83.40
2018-11-03T14:50:52.287Z,83.40
2018-11-03T14:53:20.755Z,83.70
2018-11-03T14:55:49.147Z,83.40
2018-11-03T14:58:17.586Z,84.10
2018-11-03T15:00:46.031Z,84.30
2018-11-03T15:03:14.556Z,84.50
2018-11-03T15:05:42.973Z,84.30
2018-11-03T15:08:11.384Z,84.60
2018-11-03T15:10:39.918Z,84.60
2018-11-03T15:13:08.336Z,85.10
2018-11-03T15:15:37.609Z,85.60
2018-11-03T15:18:06.096Z,85.30
2018-11-03T15:20:34.528Z,85.90
2018-11-03T15:23:02.948Z,85.70
2018-11-03T15:25:31.408Z,85.30
2018-11-03T15:27:59.935Z,85.90
2018-11-03T15:30:28.339Z,86.30
2018-11-03T15:32:56.751Z,86.60
2018-11-03T15:35:25.164Z,86.80
2018-11-03T15:37:53.639Z,86.80
2018-11-03T15:40:22.045Z,87.10
2018-11-03T15:42:50.481Z,86.90
2018-11-03T15:45:18.967Z,86.80
2018-11-03T15:47:47.955Z,87.00
2018-11-03T15:50:16.958Z,87.30
2018-11-03T15:52:45.798Z,87.50
2018-11-03T15:55:14.304Z,87.20
2018-11-03T15:57:42.952Z,87.50
2018-11-03T16:00:15.112Z,88.30
2018-11-03T16:02:43.632Z,88.00
2018-11-03T16:05:12.081Z,88.40
2018-11-03T16:07:40.645Z,88.20
2018-11-03T16:10:10.124Z,87.80
2018-11-03T16:12:38.783Z,88.20
2018-11-03T16:15:08.757Z,88.40
2018-11-03T16:17:37.252Z,88.70
2018-11-03T16:20:06.923Z,88.90
2018-11-03T16:22:35.476Z,88.80
2018-11-03T16:25:03.941Z,90.00
2018-11-03T16:27:32.377Z,89.70
2018-11-03T16:30:00.844Z,89.30
2018-11-03T16:32:29.435Z,89.40
2018-11-03T16:34:57.966Z,88.90
2018-11-03T16:37:26.525Z,89.30
2018-11-03T16:39:54.992Z,89.50
2018-11-03T16:42:23.472Z,89.40
2018-11-03T16:44:51.899Z,89.50
2018-11-03T16:47:20.391Z,90.00
2018-11-03T16:49:48.895Z,90.00
2018-11-03T16:52:17.381Z,89.70
2018-11-03T16:54:45.768Z,90.10
2018-11-03T16:57:14.637Z,90.10
2018-11-03T16:59:43.508Z,90.10
2018-11-03T17:02:12.030Z,90.10
2018-11-03T17:04:40.428Z,90.10
2018-11-03T17:07:08.876Z,90.10
2018-11-03T17:09:37.300Z,89.90
2018-11-03T17:12:05.997Z,90.40
2018-11-03T17:14:34.424Z,90.00
2018-11-03T17:17:02.949Z,90.00
2018-11-03T17:19:31.356Z,90.10
2018-11-03T17:21:59.809Z,90.10
2018-11-03T17:24:28.225Z,90.10
2018-11-03T17:26:56.640Z,90.10
2018-11-03T17:29:25.048Z,90.20
2018-11-03T17:31:53.472Z,90.20
2018-11-03T17:34:21.855Z,90.30
2018-11-03T17:36:50.269Z,90.30
2018-11-03T17:39:18.656Z,90.40
2018-11-03T17:41:47.140Z,90.50
2018-11-03T17:44:15.562Z,90.20
2018-11-03T17:46:43.985Z,90.40
2018-11-03T17:49:12.383Z,90.50
2018-11-03T17:51:40.860Z,90.50
2018-11-03T17:54:09.268Z,90.70
2018-11-03T17:56:37.689Z,90.80
2018-11-03T17:59:06.132Z,90.90
2018-11-03T18:01:34.633Z,90.80
2018-11-03T18:04:02.968Z,90.80
2018-11-03T18:06:31.412Z,90.90
2018-11-03T18:08:59.846Z,90.90
2018-11-03T18:11:28.259Z,90.90
2018-11-03T18:13:56.685Z,91.00
2018-11-03T18:16:25.132Z,91.00
2018-11-03T18:18:53.581Z,91.10
2018-11-03T18:21:22.007Z,91.00
2018-11-03T18:23:50.452Z,91.00
2018-11-03T18:26:18.960Z,91.10
2018-11-03T18:28:47.333Z,91.10
2018-11-03T18:31:15.757Z,90.90
2018-11-03T18:33:44.169Z,90.80
2018-11-03T18:36:12.649Z,91.00
2018-11-03T18:38:41.087Z,90.90
2018-11-03T18:41:09.533Z,91.10
2018-11-03T18:43:37.997Z,91.10
2018-11-03T18:46:06.441Z,91.10
2018-11-03T18:48:34.868Z,91.30
2018-11-03T18:51:03.293Z,91.30
2018-11-03T18:53:31.732Z,91.30
2018-11-03T18:56:00.164Z,91.40
2018-11-03T18:58:28.604Z,91.40
2018-11-03T19:00:57.372Z,91.50
2018-11-03T19:03:25.776Z,91.50
2018-11-03T19:05:54.200Z,91.60
2018-11-03T19:08:22.804Z,91.60
2018-11-03T19:10:51.218Z,91.60
2018-11-03T19:13:19.652Z,91.50
2018-11-03T19:15:48.102Z,91.60
2018-11-03T19:18:16.517Z,91.50
2018-11-03T19:20:45.144Z,91.40
2018-11-03T19:23:13.657Z,91.30
2018-11-03T19:25:42.076Z,91.40
2018-11-03T19:28:10.522Z,91.50
2018-11-03T19:30:38.924Z,91.50
2018-11-03T19:33:07.447Z,91.40
2018-11-03T19:35:35.807Z,91.30
2018-11-03T19:38:04.384Z,91.30
2018-11-03T19:40:32.794Z,91.30
2018-11-03T19:43:01.228Z,91.40
2018-11-03T19:45:29.636Z,91.40
2018-11-03T19:47:58.109Z,91.60
2018-11-03T19:50:26.504Z,91.50
2018-11-03T19:52:54.967Z,91.60
2018-11-03T19:55:23.390Z,91.60
2018-11-03T19:57:51.808Z,91.60
2018-11-03T20:00:20.409Z,91.60
2018-11-03T20:02:48.880Z,91.80
2018-11-03T20:05:17.308Z,91.70
2018-11-03T20:07:45.737Z,91.70
2018-11-03T20:10:14.306Z,91.70
2018-11-03T20:12:42.972Z,91.70
2018-11-03T20:15:12.372Z,91.60
2018-11-03T20:17:40.980Z,91.70
2018-11-03T20:20:10.913Z,91.50
2018-11-03T20:22:39.332Z,91.30
2018-11-03T20:25:09.001Z,91.30
2018-11-03T20:27:37.463Z,91.20
2018-11-03T20:30:09.257Z,91.20
2018-11-03T20:32:37.696Z,91.20
2018-11-03T20:35:06.560Z,91.10
2018-11-03T20:37:34.984Z,91.10
2018-11-03T20:40:03.508Z,91.30
2018-11-03T20:42:31.979Z,91.40
2018-11-03T20:45:00.505Z,91.50
2018-11-03T20:47:28.923Z,91.60
2018-11-03T20:49:57.356Z,91.50
2018-11-03T20:52:25.800Z,91.60
2018-11-03T20:54:54.240Z,91.70
2018-11-03T20:57:22.665Z,91.60
2018-11-03T20:59:51.112Z,91.60
2018-11-03T21:02:19.575Z,91.50
2018-11-03T21:04:48.012Z,91.40
2018-11-03T21:07:16.512Z,91.70
2018-11-03T21:09:44.937Z,91.40
2018-11-03T21:12:13.347Z,91.30
2018-11-03T21:14:41.786Z,91.40
2018-11-03T21:17:10.204Z,91.40
2018-11-03T21:19:38.654Z,91.40
2018-11-03T21:22:09.068Z,91.50
2018-11-03T21:24:37.611Z,91.30
2018-11-03T21:27:07.159Z,91.30
2018-11-03T21:29:35.592Z,91.10
2018-11-03T21:32:04.102Z,91.20
2018-11-03T21:34:32.548Z,91.10
2018-11-03T21:37:00.981Z,91.20
2018-11-03T21:39:29.416Z,91.20
2018-11-03T21:41:57.836Z,91.20
2018-11-03T21:44:26.325Z,91.20
2018-11-03T21:46:55.008Z,91.10
2018-11-03T21:49:23.312Z,91.30
2018-11-03T21:51:51.902Z,91.40
2018-11-03T21:54:20.464Z,91.50
2018-11-03T21:56:48.877Z,91.40
2018-11-03T21:59:17.292Z,91.40
2018-11-03T22:01:45.715Z,91.50
2018-11-03T22:04:14.125Z,91.50
2018-11-03T22:06:42.516Z,91.50
2018-11-03T22:09:12.162Z,91.60
2018-11-03T22:11:40.616Z,91.50
2018-11-03T22:14:09.056Z,91.50
2018-11-03T22:16:37.464Z,91.50
2018-11-03T22:19:06.139Z,91.70
2018-11-03T22:21:34.575Z,91.70
2018-11-03T22:24:03.098Z,91.80
2018-11-03T22:26:31.844Z,91.80
2018-11-03T22:29:00.251Z,92.00
2018-11-03T22:31:29.028Z,92.00
2018-11-03T22:33:57.471Z,91.80
2018-11-03T22:36:25.924Z,91.80
2018-11-03T22:38:54.340Z,91.80
2018-11-03T22:41:22.766Z,91.80
2018-11-03T22:43:51.176Z,91.90
2018-11-03T22:46:19.644Z,91.80
2018-11-03T22:48:48.049Z,92.00
2018-11-03T22:51:16.510Z,92.20
2018-11-03T22:53:46.181Z,92.10
2018-11-03T22:56:14.872Z,92.00
2018-11-03T22:58:43.349Z,92.00
2018-11-03T23:01:11.868Z,92.00
2018-11-03T23:03:40.608Z,92.10
2018-11-03T23:06:09.139Z,92.10
2018-11-03T23:08:37.747Z,92.30
2018-11-03T23:11:06.297Z,92.30
2018-11-03T23:13:34.829Z,92.40
2018-11-03T23:16:03.285Z,92.30
2018-11-03T23:18:31.776Z,92.00
2018-11-03T23:21:00.320Z,92.00
2018-11-03T23:23:28.858Z,92.10
2018-11-03T23:25:57.492Z,92.10
2018-11-03T23:28:26.029Z,92.20
2018-11-03T23:30:54.664Z,92.20
2018-11-03T23:33:23.213Z,92.20
2018-11-03T23:35:51.779Z,92.20
2018-11-03T23:38:20.239Z,92.30
2018-11-03T23:40:48.679Z,92.40
2018-11-03T23:43:17.106Z,92.60
2018-11-03T23:45:45.544Z,92.60
2018-11-03T23:48:13.972Z,92.90
2018-11-03T23:50:42.397Z,93.00
2018-11-03T23:53:10.881Z,93.00
2018-11-03T23:55:39.285Z,92.90
2018-11-03T23:58:07.705Z,92.80
